createdAt,value
2022-10-31T00:00:44.771Z,101499.47
2022-10-31T00:03:11.487Z,101499.75
2022-10-31T00:05:42.038Z,101491.56
2022-10-31T00:08:08.501Z,101497.28
2022-10-31T00:10:37.723Z,101509.06
2022-10-31T00:13:04.194Z,101500.88
2022-10-31T00:15:30.689Z,101505.75
2022-10-31T00:17:57.356Z,101503.59
2022-10-31T00:20:23.997Z,101515.88
2022-10-31T00:22:50.651Z,101525.72
2022-10-31T00:25:17.103Z,101512.06
2022-10-31T00:27:43.563Z,101525.97
2022-10-31T00:30:11.642Z,101530.88
2022-10-31T00:32:38.152Z,101533.88
2022-10-31T00:35:05.071Z,101537.97
2022-10-31T00:37:31.608Z,101534.97
2022-10-31T00:39:58.019Z,101535.81
2022-10-31T00:42:24.657Z,101538.53
2022-10-31T00:44:51.242Z,101545.34
2022-10-31T00:47:17.705Z,101542.09
2022-10-31T00:49:45.560Z,101544.25
2022-10-31T00:52:12.309Z,101551.34
2022-10-31T00:54:38.829Z,101562.28
2022-10-31T00:57:05.525Z,101557.91
2022-10-31T00:59:32.190Z,101557.94
2022-10-31T01:01:58.930Z,101555.47
2022-10-31T01:04:26.040Z,101560.94
2022-10-31T01:06:52.567Z,101564.19
2022-10-31T01:09:19.418Z,101568.84
2022-10-31T01:11:46.209Z,101561.19
2022-10-31T01:14:12.739Z,101564.19
2022-10-31T01:16:39.232Z,101571.84
2022-10-31T01:19:05.699Z,101570.72
2022-10-31T01:21:33.275Z,101572.38
2022-10-31T01:24:00.160Z,101583.03
2022-10-31T01:26:31.648Z,101586.84
2022-10-31T01:29:03.789Z,101579.50
2022-10-31T01:31:36.325Z,101581.13
2022-10-31T01:34:03.292Z,101577.03
2022-10-31T01:36:35.538Z,101583.88
2022-10-31T01:39:06.062Z,101580.56
2022-10-31T01:41:35.986Z,101585.22
2022-10-31T01:44:24.436Z,101586.03
2022-10-31T01:47:18.236Z,101590.41
2022-10-31T01:49:49.758Z,101588.50
2022-10-31T01:52:45.309Z,101586.31
2022-10-31T01:55:30.366Z,101587.69
2022-10-31T01:58:03.442Z,101593.41
2022-10-31T02:00:30.429Z,101591.50
2022-10-31T02:02:57.578Z,101583.56
2022-10-31T02:05:29.092Z,101587.13
2022-10-31T02:08:20.695Z,101590.94
2022-10-31T02:10:50.848Z,101591.75
2022-10-31T02:13:18.418Z,101596.09
2022-10-31T02:15:52.798Z,101591.22
2022-10-31T02:18:20.862Z,101601.00
2022-10-31T02:20:51.729Z,101600.75
2022-10-31T02:23:40.431Z,101598.56
2022-10-31T02:26:28.789Z,101606.75
2022-10-31T02:29:18.079Z,101602.91
2022-10-31T02:31:59.359Z,101592.00
2022-10-31T02:34:28.895Z,101597.72
2022-10-31T02:37:14.639Z,101596.88
2022-10-31T02:39:59.805Z,101593.59
2022-10-31T02:43:09.307Z,101589.53
2022-10-31T02:45:57.214Z,101584.06
2022-10-31T02:48:29.142Z,101580.50
2022-10-31T02:51:04.264Z,101580.75
2022-10-31T02:53:38.555Z,101583.47
2022-10-31T02:56:17.686Z,101578.56
2022-10-31T02:59:00.553Z,101582.66
2022-10-31T03:01:40.595Z,101584.28
2022-10-31T03:04:45.395Z,101594.91
2022-10-31T03:07:40.096Z,101606.63
2022-10-31T03:10:34.560Z,101597.06
2022-10-31T03:13:09.893Z,101603.31
2022-10-31T03:15:41.108Z,101604.16
2022-10-31T03:18:12.966Z,101606.28
2022-10-31T03:21:06.926Z,101609.81
2022-10-31T03:23:37.633Z,101619.34
2022-10-31T03:26:06.951Z,101617.66
2022-10-31T03:28:45.926Z,101617.94
2022-10-31T03:31:17.665Z,101611.66
2022-10-31T03:33:47.239Z,101617.94
2022-10-31T03:36:16.639Z,101614.38
2022-10-31T03:38:46.043Z,101611.91
2022-10-31T03:41:21.101Z,101612.41
2022-10-31T03:43:56.535Z,101603.91
2022-10-31T03:46:25.262Z,101612.34
2022-10-31T03:48:54.527Z,101610.41
2022-10-31T03:51:32.883Z,101627.81
2022-10-31T03:54:24.147Z,101625.03
2022-10-31T03:57:33.968Z,101635.63
2022-10-31T04:00:09.956Z,101636.47
2022-10-31T04:03:08.264Z,101639.25
2022-10-31T04:05:39.068Z,101639.50
2022-10-31T04:08:10.061Z,101637.59
2022-10-31T04:10:39.023Z,101640.56
2022-10-31T04:13:11.300Z,101648.16
2022-10-31T04:16:00.950Z,101647.34
2022-10-31T04:18:29.413Z,101648.41
2022-10-31T04:21:08.028Z,101653.88
2022-10-31T04:23:36.140Z,101649.22
2022-10-31T04:26:12.949Z,101645.13
2022-10-31T04:28:39.534Z,101636.59
2022-10-31T04:31:06.280Z,101641.19
2022-10-31T04:33:38.503Z,101641.47
2022-10-31T04:36:06.317Z,101637.03
2022-10-31T04:38:33.221Z,101636.22
2022-10-31T04:41:00.172Z,101636.75
2022-10-31T04:43:46.662Z,101634.59
2022-10-31T04:46:14.012Z,101639.22
2022-10-31T04:48:40.497Z,101633.16
2022-10-31T04:51:08.335Z,101638.81
2022-10-31T04:53:34.965Z,101636.91
2022-10-31T04:56:21.895Z,101635.25
2022-10-31T04:58:53.344Z,101641.50
2022-10-31T05:01:20.316Z,101634.66
2022-10-31T05:03:49.220Z,101642.56
2022-10-31T05:06:17.490Z,101626.75
2022-10-31T05:08:43.981Z,101623.72
2022-10-31T05:11:12.099Z,101634.31
2022-10-31T05:13:39.555Z,101625.88
2022-10-31T05:16:11.920Z,101626.66
2022-10-31T05:18:50.984Z,101631.28
2022-10-31T05:21:26.491Z,101639.13
2022-10-31T05:23:58.159Z,101641.66
2022-10-31T05:26:25.241Z,101640.75
2022-10-31T05:28:53.935Z,101640.25
2022-10-31T05:31:20.649Z,101638.38
2022-10-31T05:33:48.819Z,101649.78
2022-10-31T05:36:34.031Z,101634.50
2022-10-31T05:39:03.776Z,101629.28
2022-10-31T05:41:41.717Z,101634.09
2022-10-31T05:44:16.799Z,101630.81
2022-10-31T05:46:59.337Z,101628.88
2022-10-31T05:49:44.356Z,101627.22
2022-10-31T05:52:29.447Z,101630.94
2022-10-31T05:55:04.433Z,101643.41
2022-10-31T05:57:33.384Z,101654.31
2022-10-31T06:00:00.096Z,101640.69
2022-10-31T06:02:35.275Z,101638.75
2022-10-31T06:05:29.744Z,101644.63
2022-10-31T06:07:57.646Z,101641.34
2022-10-31T06:10:25.127Z,101640.22
2022-10-31T06:12:54.705Z,101645.91
2022-10-31T06:15:33.973Z,101640.97
2022-10-31T06:18:06.155Z,101646.97
2022-10-31T06:20:45.279Z,101640.72
2022-10-31T06:23:11.867Z,101640.41
2022-10-31T06:25:40.377Z,101643.88
2022-10-31T06:28:10.654Z,101646.91
2022-10-31T06:30:57.361Z,101641.72
2022-10-31T06:33:24.083Z,101638.69
2022-10-31T06:35:56.503Z,101645.78
2022-10-31T06:38:23.812Z,101645.78
2022-10-31T06:40:50.467Z,101634.91
2022-10-31T06:43:23.218Z,101643.13
2022-10-31T06:45:56.587Z,101654.56
2022-10-31T06:48:26.885Z,101664.63
2022-10-31T06:51:15.126Z,101666.25
2022-10-31T06:53:42.068Z,101665.00
2022-10-31T06:56:11.136Z,101676.44
2022-10-31T06:58:43.013Z,101678.72
2022-10-31T07:01:11.549Z,101678.72
2022-10-31T07:03:39.180Z,101674.47
2022-10-31T07:06:06.207Z,101685.16
2022-10-31T07:08:33.279Z,101678.97
2022-10-31T07:10:59.853Z,101681.94
2022-10-31T07:13:28.896Z,101683.69
2022-10-31T07:16:07.611Z,101677.69
2022-10-31T07:18:35.964Z,101678.50
2022-10-31T07:21:03.005Z,101681.53
2022-10-31T07:23:29.513Z,101683.19
2022-10-31T07:26:16.088Z,101689.44
2022-10-31T07:28:48.068Z,101694.34
2022-10-31T07:31:16.121Z,101700.34
2022-10-31T07:33:42.612Z,101708.25
2022-10-31T07:36:31.639Z,101702.84
2022-10-31T07:39:03.255Z,101703.50
2022-10-31T07:41:31.520Z,101709.81
2022-10-31T07:43:58.078Z,101704.41
2022-10-31T07:46:43.317Z,101706.06
2022-10-31T07:49:28.231Z,101700.09
2022-10-31T07:52:13.556Z,101712.63
2022-10-31T07:54:58.836Z,101705.31
2022-10-31T07:57:25.598Z,101702.41
2022-10-31T07:59:53.003Z,101699.47
2022-10-31T08:02:20.077Z,101699.00
2022-10-31T08:04:50.277Z,101695.25
2022-10-31T08:07:38.221Z,101697.22
2022-10-31T08:10:07.551Z,101697.56
2022-10-31T08:12:35.112Z,101694.91
2022-10-31T08:15:04.299Z,101685.19
2022-10-31T08:17:30.787Z,101679.50
2022-10-31T08:19:59.870Z,101688.25
2022-10-31T08:22:38.569Z,101694.28
2022-10-31T08:25:08.027Z,101692.72
2022-10-31T08:27:36.172Z,101689.25
2022-10-31T08:30:03.201Z,101686.31
2022-10-31T08:32:31.554Z,101684.69
2022-10-31T08:34:58.059Z,101688.06
2022-10-31T08:37:58.331Z,101675.78
2022-10-31T08:40:28.860Z,101675.56
2022-10-31T08:43:00.103Z,101675.84
2022-10-31T08:45:28.514Z,101674.50
2022-10-31T08:48:03.838Z,101675.91
2022-10-31T08:50:32.967Z,101674.31
2022-10-31T08:53:17.872Z,101667.47
2022-10-31T08:55:48.178Z,101667.19
2022-10-31T08:58:26.044Z,101666.09
2022-10-31T09:01:00.730Z,101668.00
2022-10-31T09:03:31.377Z,101671.84
2022-10-31T09:06:02.597Z,101677.31
2022-10-31T09:08:33.511Z,101674.53
2022-10-31T09:11:03.407Z,101670.13
2022-10-31T09:14:05.100Z,101666.84
2022-10-31T09:16:50.300Z,101665.72
2022-10-31T09:19:22.265Z,101662.16
2022-10-31T09:21:48.853Z,101662.69
2022-10-31T09:24:16.014Z,101658.88
2022-10-31T09:26:42.973Z,101655.03
2022-10-31T09:29:19.373Z,101654.19
2022-10-31T09:31:50.673Z,101653.63
2022-10-31T09:34:28.551Z,101651.47
2022-10-31T09:37:02.874Z,101652.50
2022-10-31T09:39:29.416Z,101655.19
2022-10-31T09:42:13.693Z,101656.59
2022-10-31T09:45:09.657Z,101659.09
2022-10-31T09:48:08.071Z,101652.78
2022-10-31T09:50:52.920Z,101653.03
2022-10-31T09:53:58.729Z,101654.09
2022-10-31T09:56:28.345Z,101646.47
2022-10-31T09:59:02.321Z,101651.94
2022-10-31T10:01:44.495Z,101649.41
2022-10-31T10:04:24.291Z,101637.69
2022-10-31T10:07:25.662Z,101645.09
2022-10-31T10:10:24.148Z,101648.88
2022-10-31T10:13:42.896Z,101646.31
2022-10-31T10:16:41.872Z,101654.78
2022-10-31T10:19:33.931Z,101645.72
2022-10-31T10:22:09.387Z,101644.03
2022-10-31T10:24:38.865Z,101641.56
2022-10-31T10:27:30.061Z,101642.16
2022-10-31T10:30:02.384Z,101637.13
2022-10-31T10:32:32.311Z,101641.78
2022-10-31T10:35:15.869Z,101639.66
2022-10-31T10:37:47.069Z,101644.28
2022-10-31T10:40:19.194Z,101644.25
2022-10-31T10:43:15.170Z,101637.09
2022-10-31T10:46:06.537Z,101645.06
2022-10-31T10:48:42.955Z,101639.00
2022-10-31T10:51:31.908Z,101634.53
2022-10-31T10:54:19.503Z,101631.16
2022-10-31T10:57:19.023Z,101622.69
2022-10-31T10:59:46.841Z,101625.94
2022-10-31T11:02:22.862Z,101622.06
2022-10-31T11:04:54.021Z,101623.72
2022-10-31T11:07:20.941Z,101621.75
2022-10-31T11:09:49.333Z,101616.34
2022-10-31T11:12:30.115Z,101615.53
2022-10-31T11:15:04.759Z,101608.78
2022-10-31T11:17:37.734Z,101597.53
2022-10-31T11:20:26.720Z,101597.25
2022-10-31T11:23:06.659Z,101594.47
2022-10-31T11:25:33.479Z,101595.63
2022-10-31T11:28:09.910Z,101594.47
2022-10-31T11:30:45.301Z,101596.16
2022-10-31T11:33:40.025Z,101597.03
2022-10-31T11:36:24.094Z,101587.50
2022-10-31T11:38:52.289Z,101593.06
2022-10-31T11:41:26.073Z,101583.06
2022-10-31T11:44:00.851Z,101577.00
2022-10-31T11:46:35.687Z,101574.47
2022-10-31T11:49:05.324Z,101579.63
2022-10-31T11:51:34.439Z,101583.19
2022-10-31T11:54:03.584Z,101581.19
2022-10-31T11:56:41.603Z,101577.94
2022-10-31T11:59:34.512Z,101574.56
2022-10-31T12:02:02.733Z,101568.50
2022-10-31T12:04:39.858Z,101553.47
2022-10-31T12:07:06.438Z,101555.88
2022-10-31T12:09:38.817Z,101549.88
2022-10-31T12:12:41.377Z,101545.19
2022-10-31T12:15:27.134Z,101539.84
2022-10-31T12:18:19.349Z,101547.06
2022-10-31T12:21:13.243Z,101546.84
2022-10-31T12:23:50.202Z,101542.09
2022-10-31T12:26:28.097Z,101539.63
2022-10-31T12:29:11.763Z,101541.44
2022-10-31T12:31:50.662Z,101537.03
2022-10-31T12:34:38.416Z,101529.94
2022-10-31T12:37:18.255Z,101525.47
2022-10-31T12:39:55.207Z,101523.78
2022-10-31T12:42:52.444Z,101516.50
2022-10-31T12:45:59.577Z,101514.75
2022-10-31T12:48:45.933Z,101508.59
2022-10-31T12:51:38.923Z,101506.22
2022-10-31T12:54:30.437Z,101499.50
2022-10-31T12:57:13.837Z,101492.78
2022-10-31T12:59:46.280Z,101482.03
2022-10-31T13:02:32.018Z,101472.00
2022-10-31T13:05:04.610Z,101471.53
2022-10-31T13:07:38.770Z,101479.66
2022-10-31T13:10:23.812Z,101478.63
2022-10-31T13:12:55.172Z,101464.16
2022-10-31T13:15:24.921Z,101456.66
2022-10-31T13:17:58.483Z,101451.69
2022-10-31T13:20:32.801Z,101442.94
2022-10-31T13:23:44.693Z,101454.06
2022-10-31T13:26:13.067Z,101448.81
2022-10-31T13:29:14.101Z,101445.16
2022-10-31T13:31:42.532Z,101434.84
2022-10-31T13:34:23.088Z,101436.63
2022-10-31T13:37:02.842Z,101428.25
2022-10-31T13:39:47.768Z,101417.31
2022-10-31T13:42:20.701Z,101417.78
2022-10-31T13:44:47.305Z,101411.28
2022-10-31T13:47:31.710Z,101409.13
2022-10-31T13:50:21.469Z,101406.38
2022-10-31T13:52:48.172Z,101397.84
2022-10-31T13:55:36.896Z,101398.66
2022-10-31T13:58:06.410Z,101392.88
2022-10-31T14:00:37.076Z,101384.22
2022-10-31T14:03:04.201Z,101376.28
2022-10-31T14:05:36.231Z,101370.75
2022-10-31T14:08:07.322Z,101366.94
2022-10-31T14:10:39.763Z,101360.66
2022-10-31T14:13:15.115Z,101365.38
2022-10-31T14:15:53.059Z,101363.56
2022-10-31T14:18:26.128Z,101364.06
2022-10-31T14:20:52.718Z,101358.38
2022-10-31T14:23:31.763Z,101373.41
2022-10-31T14:26:32.331Z,101362.06
2022-10-31T14:29:00.429Z,101366.03
2022-10-31T14:31:38.948Z,101354.50
2022-10-31T14:34:21.622Z,101362.53
2022-10-31T14:37:04.393Z,101358.81
2022-10-31T14:39:39.776Z,101358.38
2022-10-31T14:42:25.581Z,101355.72
2022-10-31T14:45:28.342Z,101355.28
2022-10-31T14:48:13.386Z,101348.00
2022-10-31T14:50:52.522Z,101350.44
2022-10-31T14:53:21.720Z,101353.19
2022-10-31T14:55:50.980Z,101345.09
2022-10-31T14:58:39.491Z,101339.09
2022-10-31T15:01:07.497Z,101335.53
2022-10-31T15:03:36.244Z,101337.81
2022-10-31T15:06:11.855Z,101333.09
2022-10-31T15:08:52.714Z,101339.16
2022-10-31T15:11:25.761Z,101328.59
2022-10-31T15:14:00.943Z,101324.78
2022-10-31T15:16:42.682Z,101323.53
2022-10-31T15:19:15.244Z,101325.53
2022-10-31T15:21:45.948Z,101310.63
2022-10-31T15:24:16.794Z,101304.16
2022-10-31T15:26:47.249Z,101298.50
2022-10-31T15:29:19.526Z,101291.69
2022-10-31T15:31:54.987Z,101287.31
2022-10-31T15:34:40.480Z,101291.16
2022-10-31T15:37:15.696Z,101285.81
2022-10-31T15:39:43.541Z,101288.59
2022-10-31T15:42:23.425Z,101285.34
2022-10-31T15:44:57.436Z,101277.53
2022-10-31T15:47:27.543Z,101266.41
2022-10-31T15:49:56.290Z,101263.09
2022-10-31T15:52:28.453Z,101261.75
2022-10-31T15:54:59.899Z,101268.97
2022-10-31T15:57:29.687Z,101270.66
2022-10-31T15:59:56.374Z,101271.22
2022-10-31T16:02:28.040Z,101269.91
2022-10-31T16:04:58.459Z,101266.59
2022-10-31T16:07:26.206Z,101260.84
2022-10-31T16:10:04.616Z,101262.25
2022-10-31T16:12:43.537Z,101262.59
2022-10-31T16:15:18.622Z,101254.53
2022-10-31T16:17:47.473Z,101263.38
2022-10-31T16:20:23.527Z,101271.13
2022-10-31T16:22:52.296Z,101264.69
2022-10-31T16:25:29.893Z,101258.13
2022-10-31T16:28:05.414Z,101256.47
2022-10-31T16:30:45.396Z,101250.75
2022-10-31T16:33:36.903Z,101241.69
2022-10-31T16:36:35.403Z,101244.56
2022-10-31T16:39:03.400Z,101248.31
2022-10-31T16:41:29.849Z,101236.56
2022-10-31T16:43:56.975Z,101236.03
2022-10-31T16:46:26.514Z,101229.38
2022-10-31T16:48:53.944Z,101234.69
2022-10-31T16:51:21.384Z,101226.44
2022-10-31T16:53:47.970Z,101224.91
2022-10-31T16:56:24.741Z,101222.00
2022-10-31T16:58:51.428Z,101222.69
2022-10-31T17:01:18.212Z,101223.94
2022-10-31T17:03:44.761Z,101224.38
2022-10-31T17:06:14.835Z,101227.75
2022-10-31T17:08:41.875Z,101232.03
2022-10-31T17:11:19.743Z,101223.25
2022-10-31T17:13:46.429Z,101205.41
2022-10-31T17:16:14.906Z,101216.69
2022-10-31T17:18:43.663Z,101226.25
2022-10-31T17:21:18.408Z,101227.00
2022-10-31T17:23:45.021Z,101218.56
2022-10-31T17:26:11.539Z,101216.69
2022-10-31T17:28:38.035Z,101223.59
2022-10-31T17:31:04.564Z,101218.00
2022-10-31T17:33:31.035Z,101224.03
2022-10-31T17:35:57.498Z,101219.91
2022-10-31T17:38:24.087Z,101222.75
2022-10-31T17:40:50.694Z,101215.59
2022-10-31T17:43:17.164Z,101215.13
2022-10-31T17:45:43.652Z,101203.41
2022-10-31T17:48:12.458Z,101200.97
2022-10-31T17:50:39.105Z,101194.69
2022-10-31T17:53:05.616Z,101191.44
2022-10-31T17:55:36.099Z,101185.66
2022-10-31T17:58:04.063Z,101177.44
2022-10-31T18:00:30.564Z,101172.59
2022-10-31T18:02:57.407Z,101170.19
2022-10-31T18:05:23.869Z,101148.31
2022-10-31T18:07:51.112Z,101147.56
2022-10-31T18:10:18.137Z,101189.22
2022-10-31T18:12:44.599Z,101179.59
2022-10-31T18:15:11.222Z,101172.25
2022-10-31T18:17:41.004Z,101145.41
2022-10-31T18:20:09.698Z,101152.81
2022-10-31T18:22:36.170Z,101154.63
2022-10-31T18:25:03.442Z,101170.66
2022-10-31T18:27:29.827Z,101172.88
2022-10-31T18:29:56.311Z,101161.28
2022-10-31T18:32:22.943Z,101160.00
2022-10-31T18:34:49.533Z,101157.44
2022-10-31T18:37:16.098Z,101157.03
2022-10-31T18:39:42.564Z,101154.81
2022-10-31T18:42:08.954Z,101145.28
2022-10-31T18:44:35.450Z,101160.69
2022-10-31T18:47:02.201Z,101145.56
2022-10-31T18:49:32.546Z,101150.44
2022-10-31T18:51:59.770Z,101128.63
2022-10-31T18:54:26.488Z,101138.06
2022-10-31T18:56:53.031Z,101123.91
2022-10-31T18:59:19.581Z,101129.06
2022-10-31T19:01:46.690Z,101122.00
2022-10-31T19:04:13.393Z,101123.63
2022-10-31T19:06:40.052Z,101109.41
2022-10-31T19:09:09.483Z,101097.63
2022-10-31T19:11:37.001Z,101102.09
2022-10-31T19:14:03.633Z,101093.75
2022-10-31T19:16:30.598Z,101091.16
2022-10-31T19:18:58.522Z,101084.34
2022-10-31T19:21:25.023Z,101081.44
2022-10-31T19:23:53.687Z,101083.13
2022-10-31T19:26:20.639Z,101073.88
2022-10-31T19:28:47.668Z,101073.25
2022-10-31T19:31:14.328Z,101072.19
2022-10-31T19:33:40.772Z,101075.59
2022-10-31T19:36:13.231Z,101067.97
2022-10-31T19:38:42.044Z,101056.44
2022-10-31T19:41:11.654Z,101047.47
2022-10-31T19:43:38.978Z,101043.59
2022-10-31T19:46:06.720Z,101040.63
2022-10-31T19:48:38.087Z,101039.56
2022-10-31T19:51:10.782Z,101027.69
2022-10-31T19:53:38.499Z,101028.56
2022-10-31T19:56:10.423Z,101023.81
2022-10-31T19:58:36.897Z,101020.59
2022-10-31T20:01:11.487Z,101022.09
2022-10-31T20:03:39.364Z,101026.41
2022-10-31T20:06:06.779Z,101013.84
2022-10-31T20:08:39.530Z,101015.59
2022-10-31T20:11:06.233Z,101008.84
2022-10-31T20:13:33.649Z,101010.88
2022-10-31T20:16:03.401Z,101008.03
2022-10-31T20:18:30.030Z,101004.44
2022-10-31T20:21:05.015Z,100985.88
2022-10-31T20:23:32.261Z,100988.75
2022-10-31T20:25:58.839Z,100990.94
2022-10-31T20:28:25.510Z,100984.22
2022-10-31T20:30:52.463Z,100997.47
2022-10-31T20:33:19.024Z,101008.50
2022-10-31T20:35:45.808Z,101017.47
2022-10-31T20:38:12.491Z,101010.41
2022-10-31T20:40:39.090Z,101024.34
2022-10-31T20:43:05.796Z,101010.00
2022-10-31T20:45:32.569Z,100999.19
2022-10-31T20:47:59.679Z,101010.63
2022-10-31T20:50:27.649Z,101007.28
2022-10-31T20:53:03.565Z,101004.38
2022-10-31T20:55:30.205Z,101008.03
2022-10-31T20:57:57.534Z,100993.44
2022-10-31T21:00:24.216Z,100995.44
2022-10-31T21:02:50.732Z,100988.81
2022-10-31T21:05:17.246Z,100993.50
2022-10-31T21:07:43.697Z,100994.63
2022-10-31T21:10:14.837Z,100994.06
2022-10-31T21:12:43.972Z,100990.59
2022-10-31T21:15:12.037Z,100997.25
2022-10-31T21:17:38.564Z,100996.75
2022-10-31T21:20:06.753Z,100989.75
2022-10-31T21:22:33.845Z,101009.16
2022-10-31T21:25:00.479Z,100995.56
2022-10-31T21:27:27.995Z,100981.75
2022-10-31T21:29:54.544Z,100972.56
2022-10-31T21:32:21.064Z,100959.19
2022-10-31T21:34:50.062Z,100954.38
2022-10-31T21:37:16.803Z,100957.66
2022-10-31T21:39:46.905Z,100963.69
2022-10-31T21:42:20.512Z,100961.53
2022-10-31T21:44:49.882Z,100971.31
2022-10-31T21:47:17.043Z,100978.72
2022-10-31T21:49:44.068Z,100967.34
2022-10-31T21:52:10.914Z,100968.97
2022-10-31T21:54:37.630Z,100971.16
2022-10-31T21:57:04.366Z,100967.69
2022-10-31T21:59:31.012Z,100962.78
2022-10-31T22:01:59.616Z,100950.56
2022-10-31T22:04:27.436Z,100948.94
2022-10-31T22:06:54.223Z,100953.63
2022-10-31T22:09:23.139Z,100942.44
2022-10-31T22:11:49.874Z,100942.16
2022-10-31T22:14:16.435Z,100948.50
2022-10-31T22:16:43.186Z,100941.97
2022-10-31T22:19:12.279Z,100934.38
2022-10-31T22:21:44.825Z,100941.81
2022-10-31T22:24:12.382Z,100936.63
2022-10-31T22:26:39.993Z,100940.44
2022-10-31T22:29:10.749Z,100942.38
2022-10-31T22:31:42.554Z,100941.56
2022-10-31T22:34:09.937Z,100934.75
2022-10-31T22:36:37.715Z,100928.78
2022-10-31T22:39:04.847Z,100933.44
2022-10-31T22:41:33.392Z,100928.78
2022-10-31T22:44:00.516Z,100927.97
2022-10-31T22:46:30.663Z,100944.06
2022-10-31T22:49:00.515Z,100933.75
2022-10-31T22:51:29.941Z,100922.50
2022-10-31T22:53:57.281Z,100934.56
2022-10-31T22:56:26.516Z,100925.91
2022-10-31T22:58:54.166Z,100922.09
2022-10-31T23:01:23.414Z,100924.06
2022-10-31T23:03:50.773Z,100929.75
2022-10-31T23:06:20.379Z,100929.00
2022-10-31T23:08:47.686Z,100918.66
2022-10-31T23:11:25.332Z,100917.28
2022-10-31T23:14:10.489Z,100920.59
2022-10-31T23:17:02.647Z,100924.75
2022-10-31T23:19:30.392Z,100921.78
2022-10-31T23:22:02.545Z,100914.72
2022-10-31T23:24:33.927Z,100907.06
2022-10-31T23:27:11.372Z,100910.38
2022-10-31T23:29:39.565Z,100912.31
2022-10-31T23:32:32.472Z,100907.69
2022-10-31T23:35:02.389Z,100895.72
2022-10-31T23:37:31.143Z,100891.28
2022-10-31T23:39:58.004Z,100882.88
2022-10-31T23:42:25.708Z,100886.47
2022-10-31T23:44:52.821Z,100878.28
2022-10-31T23:47:20.953Z,100884.28
2022-10-31T23:49:47.960Z,100878.63
2022-10-31T23:52:15.888Z,100878.91
2022-10-31T23:54:42.539Z,100876.47
2022-10-31T23:57:11.261Z,100866.13
2022-10-31T23:59:37.804Z,100862.59
